sensor_id;sensor_type;location;lat;lon;timestamp;pressure;altitude;pressure_sealevel;temperature;humidity
70229;BME280;57617;51.988;5.854;2023-03-13T00:01:19;99811.69;;;12.11;70.15
70229;BME280;57617;51.988;5.854;2023-03-13T00:03:45;99800.22;;;12.09;70.01
70229;BME280;57617;51.988;5.854;2023-03-13T00:06:11;99794.78;;;12.09;70.54
70229;BME280;57617;51.988;5.854;2023-03-13T00:08:36;99795.06;;;12.08;70.10
70229;BME280;57617;51.988;5.854;2023-03-13T00:11:11;99775.22;;;12.02;70.80
70229;BME280;57617;51.988;5.854;2023-03-13T00:13:37;99775.47;;;12.06;70.69
70229;BME280;57617;51.988;5.854;2023-03-13T00:16:07;99776.31;;;12.06;70.85
70229;BME280;57617;51.988;5.854;2023-03-13T00:18:33;99768.41;;;12.05;70.71
70229;BME280;57617;51.988;5.854;2023-03-13T00:21:04;99756.44;;;12.06;71.12
70229;BME280;57617;51.988;5.854;2023-03-13T00:23:31;99747.44;;;12.05;70.77
70229;BME280;57617;51.988;5.854;2023-03-13T00:25:58;99740.09;;;12.06;70.69
70229;BME280;57617;51.988;5.854;2023-03-13T00:28:24;99736.53;;;12.05;70.90
70229;BME280;57617;51.988;5.854;2023-03-13T00:31:02;99726.22;;;12.02;71.53
70229;BME280;57617;51.988;5.854;2023-03-13T00:33:28;99721.31;;;12.04;71.40
70229;BME280;57617;51.988;5.854;2023-03-13T00:36:00;99717.78;;;12.04;71.72
70229;BME280;57617;51.988;5.854;2023-03-13T00:38:30;99713.97;;;12.05;71.61
70229;BME280;57617;51.988;5.854;2023-03-13T00:41:07;99712.06;;;12.05;71.70
70229;BME280;57617;51.988;5.854;2023-03-13T00:43:33;99714.78;;;12.05;71.35
70229;BME280;57617;51.988;5.854;2023-03-13T00:45:59;99706.59;;;12.05;71.63
70229;BME280;57617;51.988;5.854;2023-03-13T00:48:26;99695.75;;;12.00;71.62
70229;BME280;57617;51.988;5.854;2023-03-13T00:50:51;99695.19;;;12.03;71.88
70229;BME280;57617;51.988;5.854;2023-03-13T00:53:17;99690.88;;;11.97;71.97
70229;BME280;57617;51.988;5.854;2023-03-13T00:55:53;99690.59;;;11.99;73.09
70229;BME280;57617;51.988;5.854;2023-03-13T00:58:18;99689.50;;;12.00;72.08
70229;BME280;57617;51.988;5.854;2023-03-13T01:00:44;99669.63;;;11.99;72.68
70229;BME280;57617;51.988;5.854;2023-03-13T01:03:09;99660.09;;;11.97;72.83
70229;BME280;57617;51.988;5.854;2023-03-13T01:05:34;99645.41;;;11.98;72.63
70229;BME280;57617;51.988;5.854;2023-03-13T01:08:00;99640.25;;;11.96;73.46
70229;BME280;57617;51.988;5.854;2023-03-13T01:10:25;99634.50;;;11.98;72.50
70229;BME280;57617;51.988;5.854;2023-03-13T01:12:50;99633.16;;;11.95;72.97
70229;BME280;57617;51.988;5.854;2023-03-13T01:15:16;99629.38;;;11.96;73.37
70229;BME280;57617;51.988;5.854;2023-03-13T01:17:44;99620.97;;;11.93;73.22
70229;BME280;57617;51.988;5.854;2023-03-13T01:20:10;99619.03;;;11.93;73.39
70229;BME280;57617;51.988;5.854;2023-03-13T01:22:36;99607.59;;;11.96;73.46
70229;BME280;57617;51.988;5.854;2023-03-13T01:25:01;99599.44;;;11.96;73.72
70229;BME280;57617;51.988;5.854;2023-03-13T01:27:27;99582.31;;;11.91;73.99
70229;BME280;57617;51.988;5.854;2023-03-13T01:29:53;99585.28;;;11.94;73.49
70229;BME280;57617;51.988;5.854;2023-03-13T01:32:18;99583.63;;;11.98;73.97
70229;BME280;57617;51.988;5.854;2023-03-13T01:34:43;99571.66;;;11.99;74.15
70229;BME280;57617;51.988;5.854;2023-03-13T01:37:09;99568.66;;;12.01;74.40
70229;BME280;57617;51.988;5.854;2023-03-13T01:39:34;99555.88;;;12.01;74.11
70229;BME280;57617;51.988;5.854;2023-03-13T01:41:59;99553.94;;;12.02;74.31
70229;BME280;57617;51.988;5.854;2023-03-13T01:44:26;99557.50;;;12.02;74.62
70229;BME280;57617;51.988;5.854;2023-03-13T01:46:51;99553.13;;;12.06;74.48
70229;BME280;57617;51.988;5.854;2023-03-13T01:49:30;99537.31;;;12.08;75.64
70229;BME280;57617;51.988;5.854;2023-03-13T01:52:06;99536.22;;;12.09;75.14
70229;BME280;57617;51.988;5.854;2023-03-13T01:54:56;99522.06;;;12.12;75.67
70229;BME280;57617;51.988;5.854;2023-03-13T01:57:26;99518.22;;;12.13;74.76
70229;BME280;57617;51.988;5.854;2023-03-13T02:00:08;99513.31;;;12.15;75.76
70229;BME280;57617;51.988;5.854;2023-03-13T02:02:39;99504.34;;;12.15;74.74
70229;BME280;57617;51.988;5.854;2023-03-13T02:05:06;99501.03;;;12.18;75.01
70229;BME280;57617;51.988;5.854;2023-03-13T02:07:43;99487.75;;;12.16;75.50
70229;BME280;57617;51.988;5.854;2023-03-13T02:10:10;99484.97;;;12.21;74.57
70229;BME280;57617;51.988;5.854;2023-03-13T02:12:39;99487.97;;;12.20;75.17
70229;BME280;57617;51.988;5.854;2023-03-13T02:15:17;99483.88;;;12.22;75.18
70229;BME280;57617;51.988;5.854;2023-03-13T02:17:44;99478.94;;;12.24;75.30
70229;BME280;57617;51.988;5.854;2023-03-13T02:20:11;99469.69;;;12.25;75.03
70229;BME280;57617;51.988;5.854;2023-03-13T02:22:42;99463.16;;;12.26;74.90
70229;BME280;57617;51.988;5.854;2023-03-13T02:28:00;99450.84;;;12.34;76.03
70229;BME280;57617;51.988;5.854;2023-03-13T02:30:27;99441.56;;;12.35;75.62
70229;BME280;57617;51.988;5.854;2023-03-13T02:32:53;99435.78;;;12.41;75.49
70229;BME280;57617;51.988;5.854;2023-03-13T02:35:21;99425.16;;;12.45;75.50
70229;BME280;57617;51.988;5.854;2023-03-13T02:37:50;99425.66;;;12.47;75.80
70229;BME280;57617;51.988;5.854;2023-03-13T02:40:21;99418.31;;;12.47;75.69
70229;BME280;57617;51.988;5.854;2023-03-13T02:42:49;99394.88;;;12.46;76.07
70229;BME280;57617;51.988;5.854;2023-03-13T02:45:16;99391.59;;;12.49;76.24
70229;BME280;57617;51.988;5.854;2023-03-13T02:47:42;99380.38;;;12.56;76.15
70229;BME280;57617;51.988;5.854;2023-03-13T02:50:08;99387.94;;;12.59;76.17
70229;BME280;57617;51.988;5.854;2023-03-13T02:52:46;99381.94;;;12.62;77.01
70229;BME280;57617;51.988;5.854;2023-03-13T02:55:15;99378.66;;;12.65;76.12
70229;BME280;57617;51.988;5.854;2023-03-13T02:57:42;99372.66;;;12.63;76.38
70229;BME280;57617;51.988;5.854;2023-03-13T03:00:08;99378.59;;;12.70;76.41
70229;BME280;57617;51.988;5.854;2023-03-13T03:02:36;99385.66;;;12.71;76.22
70229;BME280;57617;51.988;5.854;2023-03-13T03:05:02;99381.00;;;12.71;76.93
70229;BME280;57617;51.988;5.854;2023-03-13T03:07:28;99385.31;;;12.77;76.19
70229;BME280;57617;51.988;5.854;2023-03-13T03:09:54;99376.56;;;12.80;76.27
70229;BME280;57617;51.988;5.854;2023-03-13T03:12:19;99377.88;;;12.83;76.47
70229;BME280;57617;51.988;5.854;2023-03-13T03:14:44;99377.59;;;12.84;76.94
70229;BME280;57617;51.988;5.854;2023-03-13T03:17:10;99386.00;;;12.88;76.42
70229;BME280;57617;51.988;5.854;2023-03-13T03:19:35;99384.91;;;12.89;76.62
70229;BME280;57617;51.988;5.854;2023-03-13T03:22:00;99383.22;;;12.93;76.50
70229;BME280;57617;51.988;5.854;2023-03-13T03:24:25;99377.22;;;12.96;76.89
70229;BME280;57617;51.988;5.854;2023-03-13T03:26:51;99388.34;;;12.99;77.14
70229;BME280;57617;51.988;5.854;2023-03-13T03:29:16;99372.22;;;13.03;76.63
70229;BME280;57617;51.988;5.854;2023-03-13T03:31:41;99369.94;;;13.10;76.96
70229;BME280;57617;51.988;5.854;2023-03-13T03:34:07;99359.28;;;13.13;77.00
70229;BME280;57617;51.988;5.854;2023-03-13T03:36:32;99373.16;;;13.17;77.20
70229;BME280;57617;51.988;5.854;2023-03-13T03:38:57;99357.00;;;13.20;77.33
70229;BME280;57617;51.988;5.854;2023-03-13T03:41:23;99354.78;;;13.22;76.95
70229;BME280;57617;51.988;5.854;2023-03-13T03:43:48;99361.28;;;13.26;77.31
70229;BME280;57617;51.988;5.854;2023-03-13T03:46:14;99367.78;;;13.30;77.20
70229;BME280;57617;51.988;5.854;2023-03-13T03:48:39;99359.31;;;13.32;77.62
70229;BME280;57617;51.988;5.854;2023-03-13T03:51:05;99359.81;;;13.34;77.58
70229;BME280;57617;51.988;5.854;2023-03-13T03:53:31;99342.06;;;13.36;77.80
70229;BME280;57617;51.988;5.854;2023-03-13T03:55:57;99357.09;;;13.34;77.53
70229;BME280;57617;51.988;5.854;2023-03-13T03:58:22;99348.00;;;13.38;77.77
70229;BME280;57617;51.988;5.854;2023-03-13T04:00:47;99352.59;;;13.43;77.71
70229;BME280;57617;51.988;5.854;2023-03-13T04:03:13;99348.47;;;13.45;77.83
70229;BME280;57617;51.988;5.854;2023-03-13T04:05:39;99351.19;;;13.45;78.22
70229;BME280;57617;51.988;5.854;2023-03-13T04:08:05;99346.25;;;13.47;77.87
70229;BME280;57617;51.988;5.854;2023-03-13T04:10:31;99335.56;;;13.51;78.07
70229;BME280;57617;51.988;5.854;2023-03-13T04:12:56;99329.59;;;13.49;78.11
70229;BME280;57617;51.988;5.854;2023-03-13T04:15:21;99338.53;;;13.54;78.56
70229;BME280;57617;51.988;5.854;2023-03-13T04:17:47;99334.41;;;13.57;78.48
70229;BME280;57617;51.988;5.854;2023-03-13T04:20:12;99338.44;;;13.59;78.27
70229;BME280;57617;51.988;5.854;2023-03-13T04:22:39;99333.41;;;13.66;77.81
70229;BME280;57617;51.988;5.854;2023-03-13T04:25:04;99318.16;;;13.65;78.07
70229;BME280;57617;51.988;5.854;2023-03-13T04:27:31;99320.28;;;13.68;78.31
70229;BME280;57617;51.988;5.854;2023-03-13T04:29:57;99325.16;;;13.71;77.72
70229;BME280;57617;51.988;5.854;2023-03-13T04:32:22;99320.00;;;13.70;77.79
70229;BME280;57617;51.988;5.854;2023-03-13T04:34:47;99319.91;;;13.75;78.74
70229;BME280;57617;51.988;5.854;2023-03-13T04:37:13;99311.44;;;13.76;78.58
70229;BME280;57617;51.988;5.854;2023-03-13T04:39:38;99310.03;;;13.79;78.17
70229;BME280;57617;51.988;5.854;2023-03-13T04:42:03;99312.47;;;13.80;78.01
70229;BME280;57617;51.988;5.854;2023-03-13T04:44:28;99308.63;;;13.81;78.41
70229;BME280;57617;51.988;5.854;2023-03-13T04:46:54;99294.88;;;13.86;77.88
70229;BME280;57617;51.988;5.854;2023-03-13T04:49:19;99287.72;;;13.90;78.15
70229;BME280;57617;51.988;5.854;2023-03-13T04:51:45;99277.31;;;13.92;78.48
70229;BME280;57617;51.988;5.854;2023-03-13T04:54:11;99278.13;;;13.93;77.76
70229;BME280;57617;51.988;5.854;2023-03-13T04:56:36;99274.78;;;13.96;78.26
70229;BME280;57617;51.988;5.854;2023-03-13T04:59:02;99270.34;;;14.00;77.81
70229;BME280;57617;51.988;5.854;2023-03-13T05:01:27;99274.69;;;14.01;78.35
70229;BME280;57617;51.988;5.854;2023-03-13T05:03:53;99268.94;;;14.02;77.78
70229;BME280;57617;51.988;5.854;2023-03-13T05:06:18;99271.38;;;14.04;78.05
70229;BME280;57617;51.988;5.854;2023-03-13T05:08:43;99259.84;;;14.07;78.19
70229;BME280;57617;51.988;5.854;2023-03-13T05:11:09;99263.38;;;14.07;77.82
70229;BME280;57617;51.988;5.854;2023-03-13T05:13:35;99256.50;;;14.10;78.01
70229;BME280;57617;51.988;5.854;2023-03-13T05:16:00;99257.31;;;14.10;78.09
70229;BME280;57617;51.988;5.854;2023-03-13T05:18:25;99255.59;;;14.14;78.06
70229;BME280;57617;51.988;5.854;2023-03-13T05:20:50;99261.59;;;14.16;77.90
70229;BME280;57617;51.988;5.854;2023-03-13T05:23:16;99251.25;;;14.13;78.09
70229;BME280;57617;51.988;5.854;2023-03-13T05:25:41;99257.75;;;14.17;78.33
70229;BME280;57617;51.988;5.854;2023-03-13T05:28:07;99252.81;;;14.19;77.93
70229;BME280;57617;51.988;5.854;2023-03-13T05:30:32;99249.84;;;14.16;78.18
70229;BME280;57617;51.988;5.854;2023-03-13T05:32:57;99253.31;;;14.21;78.21
70229;BME280;57617;51.988;5.854;2023-03-13T05:35:23;99251.38;;;14.22;78.10
70229;BME280;57617;51.988;5.854;2023-03-13T05:37:48;99242.59;;;14.25;77.88
70229;BME280;57617;51.988;5.854;2023-03-13T05:40:14;99249.38;;;14.27;78.11
70229;BME280;57617;51.988;5.854;2023-03-13T05:42:39;99248.75;;;14.30;77.78
70229;BME280;57617;51.988;5.854;2023-03-13T05:45:05;99257.47;;;14.32;77.55
70229;BME280;57617;51.988;5.854;2023-03-13T05:47:30;99248.66;;;14.35;77.50
70229;BME280;57617;51.988;5.854;2023-03-13T05:49:56;99251.41;;;14.35;77.61
70229;BME280;57617;51.988;5.854;2023-03-13T05:52:21;99245.63;;;14.37;77.76
70229;BME280;57617;51.988;5.854;2023-03-13T05:54:47;99256.75;;;14.40;77.55
70229;BME280;57617;51.988;5.854;2023-03-13T05:57:12;99239.38;;;14.36;77.66
70229;BME280;57617;51.988;5.854;2023-03-13T05:59:37;99239.16;;;14.33;77.85
70229;BME280;57617;51.988;5.854;2023-03-13T06:02:03;99243.44;;;14.39;77.46
70229;BME280;57617;51.988;5.854;2023-03-13T06:04:28;99245.53;;;14.42;77.97
70229;BME280;57617;51.988;5.854;2023-03-13T06:06:53;99252.31;;;14.44;77.69
70229;BME280;57617;51.988;5.854;2023-03-13T06:09:19;99257.47;;;14.46;77.65
70229;BME280;57617;51.988;5.854;2023-03-13T06:11:44;99245.72;;;14.45;77.39
70229;BME280;57617;51.988;5.854;2023-03-13T06:14:09;99243.00;;;14.45;77.47
70229;BME280;57617;51.988;5.854;2023-03-13T06:16:35;99241.91;;;14.46;77.32
70229;BME280;57617;51.988;5.854;2023-03-13T06:19:00;99250.91;;;14.47;77.08
70229;BME280;57617;51.988;5.854;2023-03-13T06:21:26;99246.56;;;14.46;77.01
70229;BME280;57617;51.988;5.854;2023-03-13T06:23:53;99236.75;;;14.45;77.01
70229;BME280;57617;51.988;5.854;2023-03-13T06:26:19;99238.25;;;14.51;77.21
70229;BME280;57617;51.988;5.854;2023-03-13T06:28:44;99232.97;;;14.54;76.93
70229;BME280;57617;51.988;5.854;2023-03-13T06:31:09;99232.50;;;14.52;76.91
70229;BME280;57617;51.988;5.854;2023-03-13T06:33:35;99224.78;;;14.54;76.70
70229;BME280;57617;51.988;5.854;2023-03-13T06:36:01;99223.06;;;14.58;77.04
70229;BME280;57617;51.988;5.854;2023-03-13T06:38:27;99215.38;;;14.60;76.70
70229;BME280;57617;51.988;5.854;2023-03-13T06:40:52;99217.31;;;14.60;76.65
70229;BME280;57617;51.988;5.854;2023-03-13T06:43:18;99214.25;;;14.61;76.44
70229;BME280;57617;51.988;5.854;2023-03-13T06:45:43;99210.72;;;14.61;76.65
70229;BME280;57617;51.988;5.854;2023-03-13T06:48:09;99208.19;;;14.64;76.34
70229;BME280;57617;51.988;5.854;2023-03-13T06:50:37;99204.84;;;14.67;76.25
70229;BME280;57617;51.988;5.854;2023-03-13T06:53:03;99216.75;;;14.71;76.16
70229;BME280;57617;51.988;5.854;2023-03-13T06:55:28;99204.22;;;14.70;76.06
70229;BME280;57617;51.988;5.854;2023-03-13T06:57:54;99202.78;;;14.73;76.00
70229;BME280;57617;51.988;5.854;2023-03-13T07:00:19;99202.31;;;14.71;75.96
70229;BME280;57617;51.988;5.854;2023-03-13T07:02:45;99212.00;;;14.77;75.76
70229;BME280;57617;51.988;5.854;2023-03-13T07:05:10;99208.97;;;14.78;75.43
70229;BME280;57617;51.988;5.854;2023-03-13T07:07:35;99214.31;;;14.83;75.77
70229;BME280;57617;51.988;5.854;2023-03-13T07:10:01;99208.84;;;14.83;75.09
70229;BME280;57617;51.988;5.854;2023-03-13T07:12:27;99205.00;;;14.84;75.25
70229;BME280;57617;51.988;5.854;2023-03-13T07:14:52;99204.50;;;14.82;75.27
70229;BME280;57617;51.988;5.854;2023-03-13T07:17:18;99213.69;;;14.86;74.83
70229;BME280;57617;51.988;5.854;2023-03-13T07:19:43;99199.41;;;14.89;74.98
70229;BME280;57617;51.988;5.854;2023-03-13T07:22:08;99215.72;;;14.94;74.59
70229;BME280;57617;51.988;5.854;2023-03-13T07:24:33;99200.09;;;14.95;74.71
70229;BME280;57617;51.988;5.854;2023-03-13T07:26:59;99207.03;;;14.92;73.84
70229;BME280;57617;51.988;5.854;2023-03-13T07:29:24;99202.72;;;15.00;74.69
70229;BME280;57617;51.988;5.854;2023-03-13T07:31:49;99202.53;;;14.96;74.61
70229;BME280;57617;51.988;5.854;2023-03-13T07:34:15;99211.13;;;15.03;74.23
70229;BME280;57617;51.988;5.854;2023-03-13T07:36:40;99214.16;;;15.02;74.47
70229;BME280;57617;51.988;5.854;2023-03-13T07:39:06;99212.94;;;15.08;74.15
70229;BME280;57617;51.988;5.854;2023-03-13T07:41:32;99209.72;;;15.06;74.21
70229;BME280;57617;51.988;5.854;2023-03-13T07:43:57;99209.59;;;15.11;74.20
70229;BME280;57617;51.988;5.854;2023-03-13T07:46:22;99225.38;;;15.14;73.70
70229;BME280;57617;51.988;5.854;2023-03-13T07:48:48;99216.25;;;15.18;73.72
70229;BME280;57617;51.988;5.854;2023-03-13T07:51:16;99206.63;;;15.21;73.41
70229;BME280;57617;51.988;5.854;2023-03-13T07:53:43;99216.25;;;15.18;73.75
70229;BME280;57617;51.988;5.854;2023-03-13T07:56:11;99222.34;;;15.15;73.59
70229;BME280;57617;51.988;5.854;2023-03-13T07:58:38;99217.88;;;15.19;73.89
70229;BME280;57617;51.988;5.854;2023-03-13T08:01:08;99217.03;;;15.19;73.51
70229;BME280;57617;51.988;5.854;2023-03-13T08:03:34;99224.25;;;15.15;73.25
70229;BME280;57617;51.988;5.854;2023-03-13T08:06:01;99211.69;;;15.14;73.58
70229;BME280;57617;51.988;5.854;2023-03-13T08:08:27;99224.88;;;15.12;73.79
70229;BME280;57617;51.988;5.854;2023-03-13T08:10:53;99219.81;;;15.05;73.83
70229;BME280;57617;51.988;5.854;2023-03-13T08:13:18;99230.16;;;15.08;73.66
70229;BME280;57617;51.988;5.854;2023-03-13T08:15:43;99231.25;;;15.07;73.90
70229;BME280;57617;51.988;5.854;2023-03-13T08:18:08;99226.91;;;15.06;74.00
70229;BME280;57617;51.988;5.854;2023-03-13T08:20:34;99213.53;;;15.05;74.20
70229;BME280;57617;51.988;5.854;2023-03-13T08:22:59;99210.50;;;15.06;74.20
70229;BME280;57617;51.988;5.854;2023-03-13T08:25:24;99205.44;;;15.13;73.62
70229;BME280;57617;51.988;5.854;2023-03-13T08:27:50;99199.13;;;15.13;74.10
70229;BME280;57617;51.988;5.854;2023-03-13T08:30:15;99207.41;;;15.21;74.19
70229;BME280;57617;51.988;5.854;2023-03-13T08:32:40;99200.22;;;15.25;74.03
70229;BME280;57617;51.988;5.854;2023-03-13T08:35:06;99198.16;;;15.31;73.88
70229;BME280;57617;51.988;5.854;2023-03-13T08:37:32;99201.13;;;15.34;73.96
70229;BME280;57617;51.988;5.854;2023-03-13T08:39:57;99204.66;;;15.35;74.15
70229;BME280;57617;51.988;5.854;2023-03-13T08:42:22;99208.19;;;15.35;73.91
70229;BME280;57617;51.988;5.854;2023-03-13T08:44:48;99210.22;;;15.30;73.79
70229;BME280;57617;51.988;5.854;2023-03-13T08:47:13;99215.38;;;15.31;73.92
70229;BME280;57617;51.988;5.854;2023-03-13T08:49:39;99211.25;;;15.34;73.89
70229;BME280;57617;51.988;5.854;2023-03-13T08:52:05;99217.94;;;15.28;73.92
70229;BME280;57617;51.988;5.854;2023-03-13T08:54:31;99211.03;;;15.30;74.02
70229;BME280;57617;51.988;5.854;2023-03-13T08:56:56;99230.59;;;15.24;74.36
70229;BME280;57617;51.988;5.854;2023-03-13T08:59:22;99207.94;;;15.23;74.05
70229;BME280;57617;51.988;5.854;2023-03-13T09:01:47;99193.00;;;15.29;74.07
70229;BME280;57617;51.988;5.854;2023-03-13T09:04:15;99203.41;;;15.41;73.95
70229;BME280;57617;51.988;5.854;2023-03-13T09:06:40;99192.53;;;15.49;73.58
70229;BME280;57617;51.988;5.854;2023-03-13T09:09:06;99189.53;;;15.59;73.32
70229;BME280;57617;51.988;5.854;2023-03-13T09:11:32;99184.59;;;15.70;73.32
70229;BME280;57617;51.988;5.854;2023-03-13T09:13:58;99176.44;;;15.78;73.13
70229;BME280;57617;51.988;5.854;2023-03-13T09:16:28;99174.50;;;15.79;73.06
70229;BME280;57617;51.988;5.854;2023-03-13T09:18:54;99180.63;;;15.84;71.53
70229;BME280;57617;51.988;5.854;2023-03-13T09:21:39;99164.06;;;15.89;69.77
70229;BME280;57617;51.988;5.854;2023-03-13T09:24:04;99154.56;;;15.87;70.45
70229;BME280;57617;51.988;5.854;2023-03-13T09:26:29;99149.59;;;15.89;71.68
70229;BME280;57617;51.988;5.854;2023-03-13T09:28:55;99151.06;;;15.95;71.20
70229;BME280;57617;51.988;5.854;2023-03-13T09:31:28;99153.19;;;15.98;70.42
70229;BME280;57617;51.988;5.854;2023-03-13T09:33:54;99162.69;;;16.00;70.82
70229;BME280;57617;51.988;5.854;2023-03-13T09:36:20;99150.78;;;16.05;70.41
70229;BME280;57617;51.988;5.854;2023-03-13T09:38:46;99157.06;;;16.05;70.20
70229;BME280;57617;51.988;5.854;2023-03-13T09:41:22;99146.94;;;16.14;69.17
70229;BME280;57617;51.988;5.854;2023-03-13T09:46:47;99144.88;;;16.28;69.81
70229;BME280;57617;51.988;5.854;2023-03-13T09:49:31;99138.44;;;16.33;68.07
70229;BME280;57617;51.988;5.854;2023-03-13T09:52:21;99133.47;;;16.26;67.84
70229;BME280;57617;51.988;5.854;2023-03-13T09:57:34;99149.41;;;16.33;68.35
70229;BME280;57617;51.988;5.854;2023-03-13T10:00:06;99127.16;;;16.34;68.17
70229;BME280;57617;51.988;5.854;2023-03-13T10:02:38;99125.91;;;16.40;68.69
70229;BME280;57617;51.988;5.854;2023-03-13T10:05:20;99121.56;;;16.39;68.67
70229;BME280;57617;51.988;5.854;2023-03-13T10:07:45;99114.50;;;16.47;68.56
70229;BME280;57617;51.988;5.854;2023-03-13T10:10:15;99103.22;;;16.48;67.71
70229;BME280;57617;51.988;5.854;2023-03-13T10:12:47;99098.56;;;16.49;68.05
70229;BME280;57617;51.988;5.854;2023-03-13T10:15:31;99112.88;;;16.54;68.08
70229;BME280;57617;51.988;5.854;2023-03-13T10:17:59;99100.16;;;16.50;67.45
70229;BME280;57617;51.988;5.854;2023-03-13T10:20:33;99105.13;;;16.48;67.64
70229;BME280;57617;51.988;5.854;2023-03-13T10:23:06;99104.50;;;16.59;67.82
70229;BME280;57617;51.988;5.854;2023-03-13T10:25:36;99102.09;;;16.66;67.63
70229;BME280;57617;51.988;5.854;2023-03-13T10:28:15;99096.94;;;16.73;67.34
70229;BME280;57617;51.988;5.854;2023-03-13T10:31:17;99083.88;;;16.79;66.60
70229;BME280;57617;51.988;5.854;2023-03-13T10:33:47;99093.38;;;16.81;66.72
70229;BME280;57617;51.988;5.854;2023-03-13T10:36:12;99087.91;;;16.81;66.86
70229;BME280;57617;51.988;5.854;2023-03-13T10:38:52;99089.69;;;16.94;65.92
70229;BME280;57617;51.988;5.854;2023-03-13T10:41:34;99090.16;;;16.96;65.07
70229;BME280;57617;51.988;5.854;2023-03-13T10:44:03;99090.63;;;17.07;65.98
70229;BME280;57617;51.988;5.854;2023-03-13T10:46:34;99089.78;;;17.15;65.53
70229;BME280;57617;51.988;5.854;2023-03-13T10:49:02;99075.59;;;17.21;65.13
70229;BME280;57617;51.988;5.854;2023-03-13T10:51:39;99067.69;;;17.28;64.72
70229;BME280;57617;51.988;5.854;2023-03-13T10:54:26;99069.44;;;17.33;64.84
70229;BME280;57617;51.988;5.854;2023-03-13T10:57:07;99070.06;;;17.30;64.51
70229;BME280;57617;51.988;5.854;2023-03-13T10:59:38;99057.16;;;17.30;62.89
70229;BME280;57617;51.988;5.854;2023-03-13T11:02:34;99061.34;;;17.36;63.29
70229;BME280;57617;51.988;5.854;2023-03-13T11:05:01;99051.19;;;17.37;64.07
70229;BME280;57617;51.988;5.854;2023-03-13T11:07:35;99059.88;;;17.48;63.38
70229;BME280;57617;51.988;5.854;2023-03-13T11:12:48;99059.25;;;17.51;61.58
70229;BME280;57617;51.988;5.854;2023-03-13T11:15:18;99044.00;;;17.62;62.24
70229;BME280;57617;51.988;5.854;2023-03-13T11:17:50;99049.13;;;17.72;61.43
70229;BME280;57617;51.988;5.854;2023-03-13T11:20:39;99037.88;;;17.93;60.60
70229;BME280;57617;51.988;5.854;2023-03-13T11:28:49;99013.78;;;18.19;61.27
70229;BME280;57617;51.988;5.854;2023-03-13T11:31:33;99010.63;;;18.29;60.65
70229;BME280;57617;51.988;5.854;2023-03-13T11:34:11;99032.13;;;18.36;59.69
70229;BME280;57617;51.988;5.854;2023-03-13T11:37:04;99012.34;;;18.43;59.60
70229;BME280;57617;51.988;5.854;2023-03-13T11:39:46;99013.41;;;18.50;59.61
70229;BME280;57617;51.988;5.854;2023-03-13T11:45:58;98987.25;;;18.65;57.61
70229;BME280;57617;51.988;5.854;2023-03-13T11:51:53;99002.06;;;18.72;57.96
70229;BME280;57617;51.988;5.854;2023-03-13T11:54:34;98997.16;;;18.78;57.58
70229;BME280;57617;51.988;5.854;2023-03-13T11:57:10;98997.63;;;18.80;58.49
70229;BME280;57617;51.988;5.854;2023-03-13T12:00:02;98990.06;;;18.77;57.68
70229;BME280;57617;51.988;5.854;2023-03-13T12:02:34;98993.28;;;18.58;58.12
70229;BME280;57617;51.988;5.854;2023-03-13T12:05:08;98990.25;;;18.72;58.14
70229;BME280;57617;51.988;5.854;2023-03-13T12:10:43;98979.00;;;18.65;57.04
70229;BME280;57617;51.988;5.854;2023-03-13T12:13:32;98977.72;;;18.62;56.88
70229;BME280;57617;51.988;5.854;2023-03-13T12:16:08;98981.81;;;18.56;57.44
70229;BME280;57617;51.988;5.854;2023-03-13T12:18:37;98972.06;;;18.47;56.81
70229;BME280;57617;51.988;5.854;2023-03-13T12:26:18;98971.34;;;18.70;57.74
70229;BME280;57617;51.988;5.854;2023-03-13T12:31:37;98956.47;;;18.83;55.57
70229;BME280;57617;51.988;5.854;2023-03-13T12:36:51;98950.88;;;18.92;56.45
70229;BME280;57617;51.988;5.854;2023-03-13T12:39:34;98952.72;;;18.88;55.67
70229;BME280;57617;51.988;5.854;2023-03-13T12:44:54;98940.78;;;18.84;55.27
70229;BME280;57617;51.988;5.854;2023-03-13T12:47:33;98944.31;;;18.84;55.47
70229;BME280;57617;51.988;5.854;2023-03-13T12:52:49;98935.72;;;18.74;54.00
70229;BME280;57617;51.988;5.854;2023-03-13T12:55:29;98926.53;;;18.82;53.87
70229;BME280;57617;51.988;5.854;2023-03-13T13:00:34;98927.97;;;19.00;54.37
70229;BME280;57617;51.988;5.854;2023-03-13T13:06:17;98913.31;;;19.08;52.85
70229;BME280;57617;51.988;5.854;2023-03-13T13:09:07;98909.84;;;19.11;52.71
70229;BME280;57617;51.988;5.854;2023-03-13T13:16:55;98895.44;;;19.14;52.08
70229;BME280;57617;51.988;5.854;2023-03-13T13:24:53;98893.28;;;19.43;52.77
70229;BME280;57617;51.988;5.854;2023-03-13T13:27:46;98874.44;;;19.57;52.25
70229;BME280;57617;51.988;5.854;2023-03-13T13:32:47;98874.31;;;19.66;51.28
70229;BME280;57617;51.988;5.854;2023-03-13T13:37:45;98883.72;;;19.53;51.61
70229;BME280;57617;51.988;5.854;2023-03-13T13:42:37;98868.47;;;19.55;50.95
70229;BME280;57617;51.988;5.854;2023-03-13T13:47:44;98870.63;;;19.62;49.42
70229;BME280;57617;51.988;5.854;2023-03-13T13:50:27;98861.59;;;19.61;47.53
70229;BME280;57617;51.988;5.854;2023-03-13T13:53:32;98853.19;;;19.70;47.54
70229;BME280;57617;51.988;5.854;2023-03-13T13:55:58;98861.09;;;19.71;47.86
70229;BME280;57617;51.988;5.854;2023-03-13T13:58:26;98856.97;;;19.77;48.07
70229;BME280;57617;51.988;5.854;2023-03-13T14:01:00;98859.81;;;19.81;46.99
70229;BME280;57617;51.988;5.854;2023-03-13T14:03:30;98859.81;;;19.81;47.18
70229;BME280;57617;51.988;5.854;2023-03-13T14:06:23;98861.97;;;19.87;46.37
70229;BME280;57617;51.988;5.854;2023-03-13T14:08:54;98853.25;;;19.85;47.38
70229;BME280;57617;51.988;5.854;2023-03-13T14:11:28;98842.94;;;19.82;46.53
70229;BME280;57617;51.988;5.854;2023-03-13T14:14:18;98825.59;;;19.82;45.76
70229;BME280;57617;51.988;5.854;2023-03-13T14:16:48;98839.81;;;19.84;47.28
70229;BME280;57617;51.988;5.854;2023-03-13T14:19:21;98831.44;;;19.80;47.38